sensor_id;sensor_type;location;lat;lon;timestamp;temperature;humidity
61591;DHT22;57639;52.410;-1.966;2023-03-01T00:02:23;17.20;47.00
61591;DHT22;57639;52.410;-1.966;2023-03-01T00:05:29;17.20;46.90
61591;DHT22;57639;52.410;-1.966;2023-03-01T00:08:36;17.20;46.90
61591;DHT22;57639;52.410;-1.966;2023-03-01T00:11:42;17.10;46.90
61591;DHT22;57639;52.410;-1.966;2023-03-01T00:14:48;17.10;47.00
61591;DHT22;57639;52.410;-1.966;2023-03-01T00:17:55;17.10;47.10
61591;DHT22;57639;52.410;-1.966;2023-03-01T00:21:02;17.10;47.10
61591;DHT22;57639;52.410;-1.966;2023-03-01T00:24:09;17.10;47.10
61591;DHT22;57639;52.410;-1.966;2023-03-01T00:27:13;17.00;47.20
61591;DHT22;57639;52.410;-1.966;2023-03-01T00:30:19;17.00;47.20
61591;DHT22;57639;52.410;-1.966;2023-03-01T00:33:26;17.00;47.30
61591;DHT22;57639;52.410;-1.966;2023-03-01T00:36:33;17.00;47.20
61591;DHT22;57639;52.410;-1.966;2023-03-01T00:39:40;16.90;47.10
61591;DHT22;57639;52.410;-1.966;2023-03-01T00:42:46;16.90;47.10
61591;DHT22;57639;52.410;-1.966;2023-03-01T00:45:52;16.80;47.10
61591;DHT22;57639;52.410;-1.966;2023-03-01T00:48:58;16.80;47.20
61591;DHT22;57639;52.410;-1.966;2023-03-01T00:52:04;16.80;47.30
61591;DHT22;57639;52.410;-1.966;2023-03-01T00:55:11;16.70;47.30
61591;DHT22;57639;52.410;-1.966;2023-03-01T00:58:17;16.70;47.30
61591;DHT22;57639;52.410;-1.966;2023-03-01T01:01:25;16.70;47.40
61591;DHT22;57639;52.410;-1.966;2023-03-01T01:04:35;16.70;47.40
61591;DHT22;57639;52.410;-1.966;2023-03-01T01:07:41;16.60;47.40
61591;DHT22;57639;52.410;-1.966;2023-03-01T01:10:47;16.60;47.50
61591;DHT22;57639;52.410;-1.966;2023-03-01T01:13:53;16.60;47.50
61591;DHT22;57639;52.410;-1.966;2023-03-01T01:16:59;16.60;47.50
61591;DHT22;57639;52.410;-1.966;2023-03-01T01:20:11;16.60;47.50
61591;DHT22;57639;52.410;-1.966;2023-03-01T01:23:17;16.60;47.60
61591;DHT22;57639;52.410;-1.966;2023-03-01T01:26:25;16.50;47.60
61591;DHT22;57639;52.410;-1.966;2023-03-01T01:29:31;16.50;47.50
61591;DHT22;57639;52.410;-1.966;2023-03-01T01:32:37;16.50;47.50
61591;DHT22;57639;52.410;-1.966;2023-03-01T01:35:47;16.50;47.50
61591;DHT22;57639;52.410;-1.966;2023-03-01T01:38:54;16.40;47.50
61591;DHT22;57639;52.410;-1.966;2023-03-01T01:41:58;16.50;47.50
61591;DHT22;57639;52.410;-1.966;2023-03-01T01:45:32;16.40;47.50
61591;DHT22;57639;52.410;-1.966;2023-03-01T01:48:41;16.40;47.60
61591;DHT22;57639;52.410;-1.966;2023-03-01T01:51:58;16.40;47.60
61591;DHT22;57639;52.410;-1.966;2023-03-01T01:55:06;16.30;47.60
61591;DHT22;57639;52.410;-1.966;2023-03-01T01:58:17;16.30;47.60
61591;DHT22;57639;52.410;-1.966;2023-03-01T02:01:24;16.30;47.60
61591;DHT22;57639;52.410;-1.966;2023-03-01T02:04:31;16.30;47.60
61591;DHT22;57639;52.410;-1.966;2023-03-01T02:07:39;16.30;47.60
61591;DHT22;57639;52.410;-1.966;2023-03-01T02:10:46;16.30;47.60
61591;DHT22;57639;52.410;-1.966;2023-03-01T02:13:52;16.20;47.60
61591;DHT22;57639;52.410;-1.966;2023-03-01T02:17:00;16.20;47.50
61591;DHT22;57639;52.410;-1.966;2023-03-01T02:20:14;16.30;47.50
61591;DHT22;57639;52.410;-1.966;2023-03-01T02:23:25;16.20;47.50
61591;DHT22;57639;52.410;-1.966;2023-03-01T02:26:38;16.20;47.50
61591;DHT22;57639;52.410;-1.966;2023-03-01T02:29:49;16.20;47.60
61591;DHT22;57639;52.410;-1.966;2023-03-01T02:32:56;16.20;47.60
61591;DHT22;57639;52.410;-1.966;2023-03-01T02:36:08;16.20;47.50
61591;DHT22;57639;52.410;-1.966;2023-03-01T02:39:22;16.20;47.60
61591;DHT22;57639;52.410;-1.966;2023-03-01T02:42:35;16.10;47.50
61591;DHT22;57639;52.410;-1.966;2023-03-01T02:45:48;16.10;47.60
61591;DHT22;57639;52.410;-1.966;2023-03-01T02:48:57;16.10;47.60
61591;DHT22;57639;52.410;-1.966;2023-03-01T02:52:32;16.10;47.60
61591;DHT22;57639;52.410;-1.966;2023-03-01T02:55:40;16.10;47.60
61591;DHT22;57639;52.410;-1.966;2023-03-01T02:58:46;16.10;47.70
61591;DHT22;57639;52.410;-1.966;2023-03-01T03:01:57;16.10;47.70
61591;DHT22;57639;52.410;-1.966;2023-03-01T03:05:09;16.10;47.60
61591;DHT22;57639;52.410;-1.966;2023-03-01T03:08:13;16.10;47.70
61591;DHT22;57639;52.410;-1.966;2023-03-01T03:11:26;16.10;47.70
61591;DHT22;57639;52.410;-1.966;2023-03-01T03:14:33;16.00;47.80
61591;DHT22;57639;52.410;-1.966;2023-03-01T03:17:41;16.10;47.80
61591;DHT22;57639;52.410;-1.966;2023-03-01T03:20:48;16.00;47.80
61591;DHT22;57639;52.410;-1.966;2023-03-01T03:23:55;16.00;47.80
61591;DHT22;57639;52.410;-1.966;2023-03-01T03:27:01;16.00;47.80
61591;DHT22;57639;52.410;-1.966;2023-03-01T03:30:09;15.90;47.80
61591;DHT22;57639;52.410;-1.966;2023-03-01T03:33:19;15.90;47.90
61591;DHT22;57639;52.410;-1.966;2023-03-01T03:36:25;15.90;47.80
61591;DHT22;57639;52.410;-1.966;2023-03-01T03:39:31;15.90;47.90
61591;DHT22;57639;52.410;-1.966;2023-03-01T03:42:37;15.90;47.90
61591;DHT22;57639;52.410;-1.966;2023-03-01T03:45:43;15.80;47.90
61591;DHT22;57639;52.410;-1.966;2023-03-01T03:48:52;15.80;47.90
61591;DHT22;57639;52.410;-1.966;2023-03-01T03:51:58;15.80;48.00
61591;DHT22;57639;52.410;-1.966;2023-03-01T03:55:05;15.80;48.00
61591;DHT22;57639;52.410;-1.966;2023-03-01T03:58:13;15.80;48.00
61591;DHT22;57639;52.410;-1.966;2023-03-01T04:01:24;15.80;48.00
61591;DHT22;57639;52.410;-1.966;2023-03-01T04:04:33;15.80;48.10
61591;DHT22;57639;52.410;-1.966;2023-03-01T04:07:39;15.80;48.10
61591;DHT22;57639;52.410;-1.966;2023-03-01T04:10:48;15.70;48.10
61591;DHT22;57639;52.410;-1.966;2023-03-01T04:13:56;15.80;48.10
61591;DHT22;57639;52.410;-1.966;2023-03-01T04:17:02;15.70;48.20
61591;DHT22;57639;52.410;-1.966;2023-03-01T04:20:15;15.70;48.20
61591;DHT22;57639;52.410;-1.966;2023-03-01T04:23:27;15.70;48.10
61591;DHT22;57639;52.410;-1.966;2023-03-01T04:26:33;15.70;48.10
61591;DHT22;57639;52.410;-1.966;2023-03-01T04:29:39;15.70;48.10
61591;DHT22;57639;52.410;-1.966;2023-03-01T04:32:45;15.60;48.10
61591;DHT22;57639;52.410;-1.966;2023-03-01T04:35:55;15.60;48.20
61591;DHT22;57639;52.410;-1.966;2023-03-01T04:39:01;15.60;48.10
61591;DHT22;57639;52.410;-1.966;2023-03-01T04:42:12;15.60;48.10
61591;DHT22;57639;52.410;-1.966;2023-03-01T04:45:19;15.60;48.00
61591;DHT22;57639;52.410;-1.966;2023-03-01T04:48:25;15.60;48.00
61591;DHT22;57639;52.410;-1.966;2023-03-01T04:51:34;15.60;48.00
61591;DHT22;57639;52.410;-1.966;2023-03-01T04:54:40;15.60;48.10
61591;DHT22;57639;52.410;-1.966;2023-03-01T04:57:46;15.60;48.00
61591;DHT22;57639;52.410;-1.966;2023-03-01T05:00:53;15.60;48.00
61591;DHT22;57639;52.410;-1.966;2023-03-01T05:04:00;15.60;48.00
61591;DHT22;57639;52.410;-1.966;2023-03-01T05:07:10;15.60;48.00
61591;DHT22;57639;52.410;-1.966;2023-03-01T05:10:22;15.60;48.00
61591;DHT22;57639;52.410;-1.966;2023-03-01T05:13:28;15.60;48.00
61591;DHT22;57639;52.410;-1.966;2023-03-01T05:16:35;15.50;48.00
61591;DHT22;57639;52.410;-1.966;2023-03-01T05:19:41;15.60;47.90
61591;DHT22;57639;52.410;-1.966;2023-03-01T05:22:52;15.50;47.90
61591;DHT22;57639;52.410;-1.966;2023-03-01T05:25:59;15.50;48.00
61591;DHT22;57639;52.410;-1.966;2023-03-01T05:29:06;15.50;47.90
61591;DHT22;57639;52.410;-1.966;2023-03-01T05:32:12;15.50;48.00
61591;DHT22;57639;52.410;-1.966;2023-03-01T05:35:18;15.50;48.00
61591;DHT22;57639;52.410;-1.966;2023-03-01T05:38:25;15.50;48.00
61591;DHT22;57639;52.410;-1.966;2023-03-01T05:41:31;15.50;48.00
61591;DHT22;57639;52.410;-1.966;2023-03-01T05:44:37;15.50;48.00
61591;DHT22;57639;52.410;-1.966;2023-03-01T05:47:45;15.40;48.10
61591;DHT22;57639;52.410;-1.966;2023-03-01T05:50:51;15.40;48.10
61591;DHT22;57639;52.410;-1.966;2023-03-01T05:53:58;15.40;48.20
61591;DHT22;57639;52.410;-1.966;2023-03-01T05:57:04;15.40;48.20
61591;DHT22;57639;52.410;-1.966;2023-03-01T06:00:12;15.40;48.20
61591;DHT22;57639;52.410;-1.966;2023-03-01T06:03:18;15.30;48.20
61591;DHT22;57639;52.410;-1.966;2023-03-01T06:06:24;15.40;48.20
61591;DHT22;57639;52.410;-1.966;2023-03-01T06:09:33;15.30;48.20
61591;DHT22;57639;52.410;-1.966;2023-03-01T06:12:40;15.30;48.20
61591;DHT22;57639;52.410;-1.966;2023-03-01T06:15:46;15.30;48.20
61591;DHT22;57639;52.410;-1.966;2023-03-01T06:18:52;15.30;48.20
61591;DHT22;57639;52.410;-1.966;2023-03-01T06:21:58;15.30;48.20
61591;DHT22;57639;52.410;-1.966;2023-03-01T06:25:08;15.30;48.30
61591;DHT22;57639;52.410;-1.966;2023-03-01T06:28:15;15.20;48.20
61591;DHT22;57639;52.410;-1.966;2023-03-01T06:31:21;15.30;48.20
61591;DHT22;57639;52.410;-1.966;2023-03-01T06:34:25;15.30;48.20
61591;DHT22;57639;52.410;-1.966;2023-03-01T06:37:31;15.20;48.20
61591;DHT22;57639;52.410;-1.966;2023-03-01T06:40:40;15.20;48.20
61591;DHT22;57639;52.410;-1.966;2023-03-01T06:43:46;15.20;48.20
61591;DHT22;57639;52.410;-1.966;2023-03-01T06:46:50;15.20;48.20
61591;DHT22;57639;52.410;-1.966;2023-03-01T06:49:56;15.20;48.20
61591;DHT22;57639;52.410;-1.966;2023-03-01T06:53:03;15.10;48.20
61591;DHT22;57639;52.410;-1.966;2023-03-01T06:56:10;15.20;48.20
61591;DHT22;57639;52.410;-1.966;2023-03-01T06:59:17;15.10;48.20
61591;DHT22;57639;52.410;-1.966;2023-03-01T07:02:23;15.10;48.20
61591;DHT22;57639;52.410;-1.966;2023-03-01T07:05:29;15.20;48.20
61591;DHT22;57639;52.410;-1.966;2023-03-01T07:08:36;15.10;48.20
61591;DHT22;57639;52.410;-1.966;2023-03-01T07:11:44;15.20;48.20
61591;DHT22;57639;52.410;-1.966;2023-03-01T07:14:50;15.10;48.30
61591;DHT22;57639;52.410;-1.966;2023-03-01T07:17:56;15.30;48.40
61591;DHT22;57639;52.410;-1.966;2023-03-01T07:21:09;15.40;48.20
61591;DHT22;57639;52.410;-1.966;2023-03-01T07:24:17;15.60;47.90
61591;DHT22;57639;52.410;-1.966;2023-03-01T07:27:26;15.90;47.70
61591;DHT22;57639;52.410;-1.966;2023-03-01T07:30:30;16.10;47.40
61591;DHT22;57639;52.410;-1.966;2023-03-01T07:33:36;16.40;47.00
61591;DHT22;57639;52.410;-1.966;2023-03-01T07:36:43;16.60;46.70
61591;DHT22;57639;52.410;-1.966;2023-03-01T07:39:49;16.80;46.50
61591;DHT22;57639;52.410;-1.966;2023-03-01T07:42:58;17.00;46.20
61591;DHT22;57639;52.410;-1.966;2023-03-01T07:46:04;17.10;46.00
61591;DHT22;57639;52.410;-1.966;2023-03-01T07:49:08;17.30;45.80
61591;DHT22;57639;52.410;-1.966;2023-03-01T07:52:14;17.50;45.60
61591;DHT22;57639;52.410;-1.966;2023-03-01T07:55:20;17.60;45.60
61591;DHT22;57639;52.410;-1.966;2023-03-01T07:58:29;17.70;45.30
61591;DHT22;57639;52.410;-1.966;2023-03-01T08:01:35;17.80;45.20
61591;DHT22;57639;52.410;-1.966;2023-03-01T08:04:40;17.90;45.40
61591;DHT22;57639;52.410;-1.966;2023-03-01T08:07:46;18.00;45.50
61591;DHT22;57639;52.410;-1.966;2023-03-01T08:10:50;18.00;45.20
61591;DHT22;57639;52.410;-1.966;2023-03-01T08:13:59;18.00;45.60
61591;DHT22;57639;52.410;-1.966;2023-03-01T08:17:05;18.00;45.70
61591;DHT22;57639;52.410;-1.966;2023-03-01T08:20:12;18.00;45.80
61591;DHT22;57639;52.410;-1.966;2023-03-01T08:23:19;17.90;46.10
61591;DHT22;57639;52.410;-1.966;2023-03-01T08:26:25;17.90;46.20
61591;DHT22;57639;52.410;-1.966;2023-03-01T08:29:33;17.80;46.20
61591;DHT22;57639;52.410;-1.966;2023-03-01T08:32:39;17.80;46.30
61591;DHT22;57639;52.410;-1.966;2023-03-01T08:35:45;17.80;46.30
61591;DHT22;57639;52.410;-1.966;2023-03-01T08:38:52;17.70;46.50
61591;DHT22;57639;52.410;-1.966;2023-03-01T08:41:58;17.60;46.50
61591;DHT22;57639;52.410;-1.966;2023-03-01T08:45:09;17.60;46.40
61591;DHT22;57639;52.410;-1.966;2023-03-01T08:48:15;17.60;46.80
61591;DHT22;57639;52.410;-1.966;2023-03-01T08:51:22;17.60;47.00
61591;DHT22;57639;52.410;-1.966;2023-03-01T08:54:28;17.60;46.90
61591;DHT22;57639;52.410;-1.966;2023-03-01T08:57:34;17.70;46.80
61591;DHT22;57639;52.410;-1.966;2023-03-01T09:00:43;17.80;46.50
61591;DHT22;57639;52.410;-1.966;2023-03-01T09:03:49;17.80;46.50
61591;DHT22;57639;52.410;-1.966;2023-03-01T09:06:55;18.00;46.30
61591;DHT22;57639;52.410;-1.966;2023-03-01T09:10:02;18.10;46.00
61591;DHT22;57639;52.410;-1.966;2023-03-01T09:13:08;18.10;45.70
61591;DHT22;57639;52.410;-1.966;2023-03-01T09:16:16;18.20;45.60
61591;DHT22;57639;52.410;-1.966;2023-03-01T09:19:23;18.30;45.40
61591;DHT22;57639;52.410;-1.966;2023-03-01T09:22:29;18.40;45.30
61591;DHT22;57639;52.410;-1.966;2023-03-01T09:25:36;18.40;45.20
61591;DHT22;57639;52.410;-1.966;2023-03-01T09:28:42;18.50;45.10
61591;DHT22;57639;52.410;-1.966;2023-03-01T09:31:51;18.60;45.00
61591;DHT22;57639;52.410;-1.966;2023-03-01T09:34:57;18.60;45.10
61591;DHT22;57639;52.410;-1.966;2023-03-01T09:38:12;18.50;45.10
61591;DHT22;57639;52.410;-1.966;2023-03-01T09:41:38;18.40;45.10
61591;DHT22;57639;52.410;-1.966;2023-03-01T09:44:51;18.30;45.00
61591;DHT22;57639;52.410;-1.966;2023-03-01T09:48:04;18.30;45.00
61591;DHT22;57639;52.410;-1.966;2023-03-01T09:51:15;18.20;45.20
61591;DHT22;57639;52.410;-1.966;2023-03-01T09:54:23;18.10;45.00
61591;DHT22;57639;52.410;-1.966;2023-03-01T09:57:32;18.10;45.10
61591;DHT22;57639;52.410;-1.966;2023-03-01T10:00:44;18.10;45.60
61591;DHT22;57639;52.410;-1.966;2023-03-01T10:04:05;18.10;45.50
61591;DHT22;57639;52.410;-1.966;2023-03-01T10:07:22;18.10;45.30
61591;DHT22;57639;52.410;-1.966;2023-03-01T10:10:34;18.20;45.10
61591;DHT22;57639;52.410;-1.966;2023-03-01T10:13:46;18.20;44.90
61591;DHT22;57639;52.410;-1.966;2023-03-01T10:16:59;18.30;44.90
61591;DHT22;57639;52.410;-1.966;2023-03-01T10:20:22;18.30;44.80
61591;DHT22;57639;52.410;-1.966;2023-03-01T10:23:31;18.30;44.80
61591;DHT22;57639;52.410;-1.966;2023-03-01T10:26:44;18.30;44.90
61591;DHT22;57639;52.410;-1.966;2023-03-01T10:30:00;18.30;44.80
61591;DHT22;57639;52.410;-1.966;2023-03-01T10:33:14;18.50;44.70
61591;DHT22;57639;52.410;-1.966;2023-03-01T10:36:25;18.60;44.80
61591;DHT22;57639;52.410;-1.966;2023-03-01T10:39:31;18.60;45.10
61591;DHT22;57639;52.410;-1.966;2023-03-01T10:42:39;18.60;45.10
61591;DHT22;57639;52.410;-1.966;2023-03-01T10:45:52;18.70;44.60
61591;DHT22;57639;52.410;-1.966;2023-03-01T10:49:07;18.70;44.60
61591;DHT22;57639;52.410;-1.966;2023-03-01T10:52:22;18.80;44.50
61591;DHT22;57639;52.410;-1.966;2023-03-01T10:55:33;18.80;44.40
61591;DHT22;57639;52.410;-1.966;2023-03-01T10:58:41;18.80;44.40
61591;DHT22;57639;52.410;-1.966;2023-03-01T11:02:16;18.70;44.30
61591;DHT22;57639;52.410;-1.966;2023-03-01T11:05:23;18.70;44.40
61591;DHT22;57639;52.410;-1.966;2023-03-01T11:08:41;18.70;44.60
61591;DHT22;57639;52.410;-1.966;2023-03-01T11:11:52;18.60;44.80
61591;DHT22;57639;52.410;-1.966;2023-03-01T11:14:58;18.60;44.90
61591;DHT22;57639;52.410;-1.966;2023-03-01T11:18:05;18.60;44.60
61591;DHT22;57639;52.410;-1.966;2023-03-01T11:21:24;18.60;44.70
61591;DHT22;57639;52.410;-1.966;2023-03-01T11:24:39;18.60;44.80
61591;DHT22;57639;52.410;-1.966;2023-03-01T11:27:47;18.60;44.70
61591;DHT22;57639;52.410;-1.966;2023-03-01T11:30:54;18.60;45.00
61591;DHT22;57639;52.410;-1.966;2023-03-01T11:34:06;18.40;44.90
61591;DHT22;57639;52.410;-1.966;2023-03-01T11:37:22;18.40;45.00
61591;DHT22;57639;52.410;-1.966;2023-03-01T11:40:40;18.30;45.10
61591;DHT22;57639;52.410;-1.966;2023-03-01T11:43:51;18.20;45.20
61591;DHT22;57639;52.410;-1.966;2023-03-01T11:47:15;18.20;45.30
61591;DHT22;57639;52.410;-1.966;2023-03-01T11:50:30;18.10;45.40
61591;DHT22;57639;52.410;-1.966;2023-03-01T11:54:00;18.10;45.40
61591;DHT22;57639;52.410;-1.966;2023-03-01T11:57:18;18.20;45.20
61591;DHT22;57639;52.410;-1.966;2023-03-01T12:00:41;18.30;45.10
61591;DHT22;57639;52.410;-1.966;2023-03-01T12:04:06;18.40;44.90
61591;DHT22;57639;52.410;-1.966;2023-03-01T12:07:19;18.60;44.90
61591;DHT22;57639;52.410;-1.966;2023-03-01T12:10:27;18.60;44.70
61591;DHT22;57639;52.410;-1.966;2023-03-01T12:14:01;18.70;44.70
61591;DHT22;57639;52.410;-1.966;2023-03-01T12:17:24;18.80;44.60
61591;DHT22;57639;52.410;-1.966;2023-03-01T12:20:42;19.00;44.30
61591;DHT22;57639;52.410;-1.966;2023-03-01T12:24:13;19.00;44.20
61591;DHT22;57639;52.410;-1.966;2023-03-01T12:27:37;19.00;44.40
61591;DHT22;57639;52.410;-1.966;2023-03-01T12:31:09;19.00;44.60
61591;DHT22;57639;52.410;-1.966;2023-03-01T12:34:37;19.00;44.60
61591;DHT22;57639;52.410;-1.966;2023-03-01T12:37:54;18.90;44.60
61591;DHT22;57639;52.410;-1.966;2023-03-01T12:41:16;18.80;44.80
61591;DHT22;57639;52.410;-1.966;2023-03-01T12:48:35;18.70;45.00
61591;DHT22;57639;52.410;-1.966;2023-03-01T12:52:01;18.60;45.00
61591;DHT22;57639;52.410;-1.966;2023-03-01T12:55:23;18.60;45.20
61591;DHT22;57639;52.410;-1.966;2023-03-01T12:58:32;18.50;45.40
61591;DHT22;57639;52.410;-1.966;2023-03-01T13:01:45;18.60;45.80
61591;DHT22;57639;52.410;-1.966;2023-03-01T13:05:18;18.40;45.60
61591;DHT22;57639;52.410;-1.966;2023-03-01T13:08:29;18.30;45.60
61591;DHT22;57639;52.410;-1.966;2023-03-01T13:11:41;18.20;45.70
61591;DHT22;57639;52.410;-1.966;2023-03-01T13:14:47;18.20;45.80
61591;DHT22;57639;52.410;-1.966;2023-03-01T13:17:54;18.10;45.80
61591;DHT22;57639;52.410;-1.966;2023-03-01T13:21:04;18.10;45.90
61591;DHT22;57639;52.410;-1.966;2023-03-01T13:24:25;18.00;46.00
61591;DHT22;57639;52.410;-1.966;2023-03-01T13:27:32;18.00;46.00
61591;DHT22;57639;52.410;-1.966;2023-03-01T13:30:40;17.90;46.00
61591;DHT22;57639;52.410;-1.966;2023-03-01T13:33:48;17.80;46.20
61591;DHT22;57639;52.410;-1.966;2023-03-01T13:37:09;17.80;46.30
61591;DHT22;57639;52.410;-1.966;2023-03-01T13:43:58;18.10;46.40
61591;DHT22;57639;52.410;-1.966;2023-03-01T13:47:17;18.20;46.20
61591;DHT22;57639;52.410;-1.966;2023-03-01T13:50:25;18.40;45.90
61591;DHT22;57639;52.410;-1.966;2023-03-01T13:53:36;18.60;45.60
61591;DHT22;57639;52.410;-1.966;2023-03-01T13:56:43;18.70;45.30
61591;DHT22;57639;52.410;-1.966;2023-03-01T13:59:50;18.80;45.00
61591;DHT22;57639;52.410;-1.966;2023-03-01T14:03:04;19.00;44.70
61591;DHT22;57639;52.410;-1.966;2023-03-01T14:06:13;19.10;44.40
61591;DHT22;57639;52.410;-1.966;2023-03-01T14:09:25;19.20;44.50
61591;DHT22;57639;52.410;-1.966;2023-03-01T14:12:41;19.30;44.30
61591;DHT22;57639;52.410;-1.966;2023-03-01T14:16:02;19.30;44.50
61591;DHT22;57639;52.410;-1.966;2023-03-01T14:19:16;19.20;44.20
61591;DHT22;57639;52.410;-1.966;2023-03-01T14:22:23;19.20;44.50
61591;DHT22;57639;52.410;-1.966;2023-03-01T14:25:34;19.10;44.60
61591;DHT22;57639;52.410;-1.966;2023-03-01T14:28:42;19.10;44.70
61591;DHT22;57639;52.410;-1.966;2023-03-01T14:31:49;19.10;44.70
61591;DHT22;57639;52.410;-1.966;2023-03-01T14:34:56;19.00;44.80
61591;DHT22;57639;52.410;-1.966;2023-03-01T14:38:03;19.00;44.80
61591;DHT22;57639;52.410;-1.966;2023-03-01T14:41:15;18.90;44.90
61591;DHT22;57639;52.410;-1.966;2023-03-01T14:44:23;18.80;44.60
61591;DHT22;57639;52.410;-1.966;2023-03-01T14:47:33;18.70;44.60
61591;DHT22;57639;52.410;-1.966;2023-03-01T14:50:42;18.60;44.70
61591;DHT22;57639;52.410;-1.966;2023-03-01T14:53:49;18.60;45.00
61591;DHT22;57639;52.410;-1.966;2023-03-01T14:57:01;18.50;45.00
61591;DHT22;57639;52.410;-1.966;2023-03-01T15:00:10;18.50;45.30
61591;DHT22;57639;52.410;-1.966;2023-03-01T15:03:23;18.40;45.20
61591;DHT22;57639;52.410;-1.966;2023-03-01T15:06:30;18.30;45.20
61591;DHT22;57639;52.410;-1.966;2023-03-01T15:09:37;18.30;45.20
61591;DHT22;57639;52.410;-1.966;2023-03-01T15:12:46;18.20;45.30
61591;DHT22;57639;52.410;-1.966;2023-03-01T15:15:54;18.20;45.50
61591;DHT22;57639;52.410;-1.966;2023-03-01T15:19:07;18.10;45.60
61591;DHT22;57639;52.410;-1.966;2023-03-01T15:22:15;18.10;45.60
61591;DHT22;57639;52.410;-1.966;2023-03-01T15:25:23;18.10;45.70
61591;DHT22;57639;52.410;-1.966;2023-03-01T15:28:34;18.00;45.80
61591;DHT22;57639;52.410;-1.966;2023-03-01T15:31:47;18.00;45.80
61591;DHT22;57639;52.410;-1.966;2023-03-01T15:35:01;17.90;45.90
61591;DHT22;57639;52.410;-1.966;2023-03-01T15:38:25;17.90;46.00
61591;DHT22;57639;52.410;-1.966;2023-03-01T15:41:37;17.80;46.20
61591;DHT22;57639;52.410;-1.966;2023-03-01T15:44:46;17.70;46.10
61591;DHT22;57639;52.410;-1.966;2023-03-01T15:47:53;17.70;46.10
61591;DHT22;57639;52.410;-1.966;2023-03-01T15:51:00;17.70;46.60
61591;DHT22;57639;52.410;-1.966;2023-03-01T15:54:14;17.70;46.70
61591;DHT22;57639;52.410;-1.966;2023-03-01T15:57:23;17.70;46.70
61591;DHT22;57639;52.410;-1.966;2023-03-01T16:00:32;17.70;46.70
61591;DHT22;57639;52.410;-1.966;2023-03-01T16:03:38;17.60;46.80
61591;DHT22;57639;52.410;-1.966;2023-03-01T16:06:44;17.60;46.90
61591;DHT22;57639;52.410;-1.966;2023-03-01T16:09:56;17.50;47.10
61591;DHT22;57639;52.410;-1.966;2023-03-01T16:13:02;17.50;47.10
61591;DHT22;57639;52.410;-1.966;2023-03-01T16:16:13;17.40;47.10
61591;DHT22;57639;52.410;-1.966;2023-03-01T16:19:20;17.40;47.10
61591;DHT22;57639;52.410;-1.966;2023-03-01T16:22:26;17.30;47.10
61591;DHT22;57639;52.410;-1.966;2023-03-01T16:25:34;17.30;47.10
61591;DHT22;57639;52.410;-1.966;2023-03-01T16:28:41;17.30;47.20
61591;DHT22;57639;52.410;-1.966;2023-03-01T16:31:50;17.20;47.20
61591;DHT22;57639;52.410;-1.966;2023-03-01T16:34:56;17.20;47.20
61591;DHT22;57639;52.410;-1.966;2023-03-01T16:38:02;17.20;47.20
61591;DHT22;57639;52.410;-1.966;2023-03-01T16:41:12;17.10;47.30
61591;DHT22;57639;52.410;-1.966;2023-03-01T16:44:18;17.10;47.30
61591;DHT22;57639;52.410;-1.966;2023-03-01T16:47:27;17.10;47.30
61591;DHT22;57639;52.410;-1.966;2023-03-01T16:50:33;17.00;47.60
61591;DHT22;57639;52.410;-1.966;2023-03-01T16:53:39;17.00;47.70
61591;DHT22;57639;52.410;-1.966;2023-03-01T16:56:45;17.10;48.00
61591;DHT22;57639;52.410;-1.966;2023-03-01T16:59:51;17.20;48.50
61591;DHT22;57639;52.410;-1.966;2023-03-01T17:03:00;17.20;48.10
61591;DHT22;57639;52.410;-1.966;2023-03-01T17:06:08;17.20;47.90
61591;DHT22;57639;52.410;-1.966;2023-03-01T17:09:15;17.20;47.80
61591;DHT22;57639;52.410;-1.966;2023-03-01T17:12:24;17.20;47.80
61591;DHT22;57639;52.410;-1.966;2023-03-01T17:15:31;17.20;47.70
61591;DHT22;57639;52.410;-1.966;2023-03-01T17:18:40;17.20;47.80
61591;DHT22;57639;52.410;-1.966;2023-03-01T17:21:47;17.10;47.80
61591;DHT22;57639;52.410;-1.966;2023-03-01T17:24:54;17.10;48.00
61591;DHT22;57639;52.410;-1.966;2023-03-01T17:28:00;17.10;47.90
61591;DHT22;57639;52.410;-1.966;2023-03-01T17:31:07;17.00;47.70
61591;DHT22;57639;52.410;-1.966;2023-03-01T17:34:16;17.00;47.80
61591;DHT22;57639;52.410;-1.966;2023-03-01T17:37:22;17.00;47.80
61591;DHT22;57639;52.410;-1.966;2023-03-01T17:40:28;17.00;47.80
61591;DHT22;57639;52.410;-1.966;2023-03-01T17:43:34;16.90;47.80
61591;DHT22;57639;52.410;-1.966;2023-03-01T17:46:40;16.90;47.80
61591;DHT22;57639;52.410;-1.966;2023-03-01T17:49:49;16.90;48.10
61591;DHT22;57639;52.410;-1.966;2023-03-01T17:52:55;16.80;48.00
61591;DHT22;57639;52.410;-1.966;2023-03-01T17:56:02;16.80;48.10
61591;DHT22;57639;52.410;-1.966;2023-03-01T17:59:09;16.70;48.20
61591;DHT22;57639;52.410;-1.966;2023-03-01T18:02:15;16.60;48.30
61591;DHT22;57639;52.410;-1.966;2023-03-01T18:05:25;16.60;48.40
61591;DHT22;57639;52.410;-1.966;2023-03-01T18:08:31;16.60;48.50
61591;DHT22;57639;52.410;-1.966;2023-03-01T18:11:37;16.60;48.60
61591;DHT22;57639;52.410;-1.966;2023-03-01T18:14:41;16.60;48.60
61591;DHT22;57639;52.410;-1.966;2023-03-01T18:17:47;16.80;48.60
61591;DHT22;57639;52.410;-1.966;2023-03-01T18:21:00;16.90;48.50
61591;DHT22;57639;52.410;-1.966;2023-03-01T18:24:06;17.10;48.50
61591;DHT22;57639;52.410;-1.966;2023-03-01T18:27:13;17.30;48.10
61591;DHT22;57639;52.410;-1.966;2023-03-01T18:30:19;17.60;47.60
61591;DHT22;57639;52.410;-1.966;2023-03-01T18:33:25;17.80;47.10
61591;DHT22;57639;52.410;-1.966;2023-03-01T18:36:34;18.10;46.90
61591;DHT22;57639;52.410;-1.966;2023-03-01T18:39:41;18.30;46.40
61591;DHT22;57639;52.410;-1.966;2023-03-01T18:42:47;18.50;46.10
61591;DHT22;57639;52.410;-1.966;2023-03-01T18:45:55;18.60;45.80
61591;DHT22;57639;52.410;-1.966;2023-03-01T18:49:02;18.70;45.60
61591;DHT22;57639;52.410;-1.966;2023-03-01T18:52:11;18.80;45.50
61591;DHT22;57639;52.410;-1.966;2023-03-01T18:55:17;18.80;45.50
61591;DHT22;57639;52.410;-1.966;2023-03-01T18:58:23;18.90;45.40
61591;DHT22;57639;52.410;-1.966;2023-03-01T19:01:31;19.00;45.50
61591;DHT22;57639;52.410;-1.966;2023-03-01T19:04:37;19.10;45.80
61591;DHT22;57639;52.410;-1.966;2023-03-01T19:07:46;19.10;46.60
61591;DHT22;57639;52.410;-1.966;2023-03-01T19:10:55;19.10;47.40
61591;DHT22;57639;52.410;-1.966;2023-03-01T19:14:02;19.10;47.60
61591;DHT22;57639;52.410;-1.966;2023-03-01T19:17:08;19.10;47.60
61591;DHT22;57639;52.410;-1.966;2023-03-01T19:20:14;19.10;47.40
61591;DHT22;57639;52.410;-1.966;2023-03-01T19:23:23;19.10;47.30
61591;DHT22;57639;52.410;-1.966;2023-03-01T19:26:30;19.10;47.20
61591;DHT22;57639;52.410;-1.966;2023-03-01T19:29:36;19.00;47.10
61591;DHT22;57639;52.410;-1.966;2023-03-01T19:32:42;19.00;46.70
61591;DHT22;57639;52.410;-1.966;2023-03-01T19:35:48;18.80;46.30
61591;DHT22;57639;52.410;-1.966;2023-03-01T19:38:57;18.70;46.50
61591;DHT22;57639;52.410;-1.966;2023-03-01T19:42:04;18.60;46.40
61591;DHT22;57639;52.410;-1.966;2023-03-01T19:45:10;18.60;47.00